sensor_id;sensor_type;location;lat;lon;timestamp;P1;durP1;ratioP1;P2;durP2;ratioP2
21820;SDS011;11073;48.586;12.066;2023-03-01T00:00:07;21.03;;;14.17;;
21820;SDS011;11073;48.586;12.066;2023-03-01T00:02:57;20.90;;;13.80;;
21820;SDS011;11073;48.586;12.066;2023-03-01T00:05:47;19.67;;;14.10;;
21820;SDS011;11073;48.586;12.066;2023-03-01T00:08:36;19.90;;;13.87;;
21820;SDS011;11073;48.586;12.066;2023-03-01T00:11:27;18.23;;;13.27;;
21820;SDS011;11073;48.586;12.066;2023-03-01T00:14:17;17.87;;;13.40;;
21820;SDS011;11073;48.586;12.066;2023-03-01T00:17:06;18.93;;;12.90;;
21820;SDS011;11073;48.586;12.066;2023-03-01T00:19:55;18.73;;;12.80;;
21820;SDS011;11073;48.586;12.066;2023-03-01T00:22:44;19.17;;;13.63;;
21820;SDS011;11073;48.586;12.066;2023-03-01T00:25:33;18.83;;;13.23;;
21820;SDS011;11073;48.586;12.066;2023-03-01T00:28:31;18.70;;;13.30;;
21820;SDS011;11073;48.586;12.066;2023-03-01T00:31:21;21.00;;;13.83;;
21820;SDS011;11073;48.586;12.066;2023-03-01T00:34:12;19.67;;;13.60;;
21820;SDS011;11073;48.586;12.066;2023-03-01T00:37:01;18.30;;;13.70;;
21820;SDS011;11073;48.586;12.066;2023-03-01T00:39:52;18.70;;;13.07;;
21820;SDS011;11073;48.586;12.066;2023-03-01T00:42:42;19.23;;;13.33;;
21820;SDS011;11073;48.586;12.066;2023-03-01T00:45:33;19.40;;;13.43;;
21820;SDS011;11073;48.586;12.066;2023-03-01T00:48:23;20.17;;;13.87;;
21820;SDS011;11073;48.586;12.066;2023-03-01T00:51:13;18.57;;;13.73;;
21820;SDS011;11073;48.586;12.066;2023-03-01T00:54:02;17.30;;;13.10;;
21820;SDS011;11073;48.586;12.066;2023-03-01T00:56:52;18.07;;;12.43;;
21820;SDS011;11073;48.586;12.066;2023-03-01T00:59:41;20.37;;;13.23;;
21820;SDS011;11073;48.586;12.066;2023-03-01T01:02:33;19.43;;;13.43;;
21820;SDS011;11073;48.586;12.066;2023-03-01T01:05:23;20.33;;;13.90;;
21820;SDS011;11073;48.586;12.066;2023-03-01T01:08:13;19.37;;;13.53;;
21820;SDS011;11073;48.586;12.066;2023-03-01T01:11:02;19.83;;;13.53;;
21820;SDS011;11073;48.586;12.066;2023-03-01T01:13:52;22.27;;;13.93;;
21820;SDS011;11073;48.586;12.066;2023-03-01T01:16:41;19.90;;;13.73;;
21820;SDS011;11073;48.586;12.066;2023-03-01T01:19:32;19.90;;;13.97;;
21820;SDS011;11073;48.586;12.066;2023-03-01T01:22:23;19.77;;;14.13;;
21820;SDS011;11073;48.586;12.066;2023-03-01T01:25:12;19.97;;;13.67;;
21820;SDS011;11073;48.586;12.066;2023-03-01T01:28:01;20.30;;;14.37;;
21820;SDS011;11073;48.586;12.066;2023-03-01T01:30:50;19.30;;;13.97;;
21820;SDS011;11073;48.586;12.066;2023-03-01T01:33:39;19.97;;;14.27;;
21820;SDS011;11073;48.586;12.066;2023-03-01T01:36:30;19.90;;;14.17;;
21820;SDS011;11073;48.586;12.066;2023-03-01T01:39:20;22.23;;;14.30;;
21820;SDS011;11073;48.586;12.066;2023-03-01T01:42:11;22.23;;;14.47;;
21820;SDS011;11073;48.586;12.066;2023-03-01T01:48:16;21.07;;;14.17;;
21820;SDS011;11073;48.586;12.066;2023-03-01T01:51:09;20.87;;;14.23;;
21820;SDS011;11073;48.586;12.066;2023-03-01T01:54:05;19.80;;;14.73;;
21820;SDS011;11073;48.586;12.066;2023-03-01T01:56:58;21.60;;;15.13;;
21820;SDS011;11073;48.586;12.066;2023-03-01T01:59:51;20.77;;;14.37;;
21820;SDS011;11073;48.586;12.066;2023-03-01T02:02:43;21.63;;;15.27;;
21820;SDS011;11073;48.586;12.066;2023-03-01T02:05:36;23.10;;;14.80;;
21820;SDS011;11073;48.586;12.066;2023-03-01T02:08:31;20.63;;;14.63;;
21820;SDS011;11073;48.586;12.066;2023-03-01T02:11:25;20.53;;;14.93;;
21820;SDS011;11073;48.586;12.066;2023-03-01T02:14:15;20.90;;;14.53;;
21820;SDS011;11073;48.586;12.066;2023-03-01T02:17:05;19.67;;;14.73;;
21820;SDS011;11073;48.586;12.066;2023-03-01T02:19:57;22.13;;;14.53;;
21820;SDS011;11073;48.586;12.066;2023-03-01T02:22:55;22.87;;;15.43;;
21820;SDS011;11073;48.586;12.066;2023-03-01T02:25:46;24.47;;;14.27;;
21820;SDS011;11073;48.586;12.066;2023-03-01T02:28:41;20.97;;;14.23;;
21820;SDS011;11073;48.586;12.066;2023-03-01T02:31:33;23.50;;;13.87;;
21820;SDS011;11073;48.586;12.066;2023-03-01T02:34:32;21.53;;;14.20;;
21820;SDS011;11073;48.586;12.066;2023-03-01T02:37:21;21.17;;;14.53;;
21820;SDS011;11073;48.586;12.066;2023-03-01T02:40:13;25.07;;;16.43;;
21820;SDS011;11073;48.586;12.066;2023-03-01T02:43:06;24.43;;;15.60;;
21820;SDS011;11073;48.586;12.066;2023-03-01T02:46:04;22.20;;;14.57;;
21820;SDS011;11073;48.586;12.066;2023-03-01T02:48:55;21.30;;;14.77;;
21820;SDS011;11073;48.586;12.066;2023-03-01T02:51:46;22.10;;;14.93;;
21820;SDS011;11073;48.586;12.066;2023-03-01T02:54:56;22.30;;;14.63;;
21820;SDS011;11073;48.586;12.066;2023-03-01T02:57:49;23.10;;;16.07;;
21820;SDS011;11073;48.586;12.066;2023-03-01T03:00:40;21.60;;;15.57;;
21820;SDS011;11073;48.586;12.066;2023-03-01T03:03:36;22.40;;;14.93;;
21820;SDS011;11073;48.586;12.066;2023-03-01T03:06:26;21.97;;;14.43;;
21820;SDS011;11073;48.586;12.066;2023-03-01T03:09:15;24.97;;;15.80;;
21820;SDS011;11073;48.586;12.066;2023-03-01T03:12:06;21.77;;;14.57;;
21820;SDS011;11073;48.586;12.066;2023-03-01T03:14:55;24.93;;;15.17;;
21820;SDS011;11073;48.586;12.066;2023-03-01T03:17:44;23.67;;;16.03;;
21820;SDS011;11073;48.586;12.066;2023-03-01T03:20:34;25.47;;;15.50;;
21820;SDS011;11073;48.586;12.066;2023-03-01T03:23:24;23.40;;;15.50;;
21820;SDS011;11073;48.586;12.066;2023-03-01T03:26:13;22.53;;;15.53;;
21820;SDS011;11073;48.586;12.066;2023-03-01T03:29:02;24.00;;;15.13;;
21820;SDS011;11073;48.586;12.066;2023-03-01T03:31:51;25.10;;;16.37;;
21820;SDS011;11073;48.586;12.066;2023-03-01T03:34:40;22.17;;;15.33;;
21820;SDS011;11073;48.586;12.066;2023-03-01T03:37:30;22.20;;;15.17;;
21820;SDS011;11073;48.586;12.066;2023-03-01T03:40:38;23.57;;;15.37;;
21820;SDS011;11073;48.586;12.066;2023-03-01T03:43:29;21.80;;;14.27;;
21820;SDS011;11073;48.586;12.066;2023-03-01T03:46:20;24.17;;;16.67;;
21820;SDS011;11073;48.586;12.066;2023-03-01T03:49:08;23.00;;;16.00;;
21820;SDS011;11073;48.586;12.066;2023-03-01T03:51:57;23.03;;;15.53;;
21820;SDS011;11073;48.586;12.066;2023-03-01T03:54:48;22.80;;;15.93;;
21820;SDS011;11073;48.586;12.066;2023-03-01T03:57:37;23.17;;;15.30;;
21820;SDS011;11073;48.586;12.066;2023-03-01T04:00:26;23.00;;;15.17;;
21820;SDS011;11073;48.586;12.066;2023-03-01T04:03:15;21.53;;;14.87;;
21820;SDS011;11073;48.586;12.066;2023-03-01T04:06:06;24.00;;;15.17;;
21820;SDS011;11073;48.586;12.066;2023-03-01T04:08:55;20.93;;;15.70;;
21820;SDS011;11073;48.586;12.066;2023-03-01T04:11:48;25.47;;;16.27;;
21820;SDS011;11073;48.586;12.066;2023-03-01T04:14:38;24.20;;;16.40;;
21820;SDS011;11073;48.586;12.066;2023-03-01T04:17:28;23.73;;;14.93;;
21820;SDS011;11073;48.586;12.066;2023-03-01T04:20:18;23.53;;;16.13;;
21820;SDS011;11073;48.586;12.066;2023-03-01T04:23:13;26.50;;;15.67;;
21820;SDS011;11073;48.586;12.066;2023-03-01T04:26:06;22.87;;;15.33;;
21820;SDS011;11073;48.586;12.066;2023-03-01T04:28:57;25.20;;;15.57;;
21820;SDS011;11073;48.586;12.066;2023-03-01T04:31:47;22.67;;;15.03;;
21820;SDS011;11073;48.586;12.066;2023-03-01T04:34:38;24.30;;;15.23;;
21820;SDS011;11073;48.586;12.066;2023-03-01T04:37:27;25.93;;;15.83;;
21820;SDS011;11073;48.586;12.066;2023-03-01T04:40:16;24.47;;;15.17;;
21820;SDS011;11073;48.586;12.066;2023-03-01T04:43:06;25.53;;;16.27;;
21820;SDS011;11073;48.586;12.066;2023-03-01T04:46:00;23.47;;;15.93;;
21820;SDS011;11073;48.586;12.066;2023-03-01T04:48:51;23.47;;;15.50;;
21820;SDS011;11073;48.586;12.066;2023-03-01T04:51:40;23.87;;;16.10;;
21820;SDS011;11073;48.586;12.066;2023-03-01T04:54:30;23.70;;;15.37;;
21820;SDS011;11073;48.586;12.066;2023-03-01T04:57:19;24.47;;;16.07;;
21820;SDS011;11073;48.586;12.066;2023-03-01T05:00:09;23.87;;;15.83;;
21820;SDS011;11073;48.586;12.066;2023-03-01T05:03:09;24.43;;;15.20;;
21820;SDS011;11073;48.586;12.066;2023-03-01T05:05:58;24.67;;;17.00;;
21820;SDS011;11073;48.586;12.066;2023-03-01T05:08:48;26.73;;;15.77;;
21820;SDS011;11073;48.586;12.066;2023-03-01T05:11:37;25.23;;;16.47;;
21820;SDS011;11073;48.586;12.066;2023-03-01T05:14:26;28.43;;;17.43;;
21820;SDS011;11073;48.586;12.066;2023-03-01T05:17:16;26.77;;;16.50;;
21820;SDS011;11073;48.586;12.066;2023-03-01T05:20:08;24.13;;;15.93;;
21820;SDS011;11073;48.586;12.066;2023-03-01T05:22:59;23.73;;;16.10;;
21820;SDS011;11073;48.586;12.066;2023-03-01T05:25:52;23.33;;;15.67;;
21820;SDS011;11073;48.586;12.066;2023-03-01T05:28:42;27.67;;;17.07;;
21820;SDS011;11073;48.586;12.066;2023-03-01T05:31:31;27.27;;;16.07;;
21820;SDS011;11073;48.586;12.066;2023-03-01T05:34:22;29.03;;;16.53;;
21820;SDS011;11073;48.586;12.066;2023-03-01T05:37:13;23.73;;;15.83;;
21820;SDS011;11073;48.586;12.066;2023-03-01T05:40:03;25.30;;;16.10;;
21820;SDS011;11073;48.586;12.066;2023-03-01T05:42:54;26.13;;;16.73;;
21820;SDS011;11073;48.586;12.066;2023-03-01T05:45:44;26.87;;;17.33;;
21820;SDS011;11073;48.586;12.066;2023-03-01T05:48:34;25.80;;;15.40;;
21820;SDS011;11073;48.586;12.066;2023-03-01T05:51:23;25.23;;;16.53;;
21820;SDS011;11073;48.586;12.066;2023-03-01T05:54:13;24.93;;;15.93;;
21820;SDS011;11073;48.586;12.066;2023-03-01T05:57:01;25.77;;;16.87;;
21820;SDS011;11073;48.586;12.066;2023-03-01T05:59:50;29.60;;;17.50;;
21820;SDS011;11073;48.586;12.066;2023-03-01T06:02:39;29.77;;;16.93;;
21820;SDS011;11073;48.586;12.066;2023-03-01T06:05:28;27.67;;;18.17;;
21820;SDS011;11073;48.586;12.066;2023-03-01T06:08:18;26.73;;;17.83;;
21820;SDS011;11073;48.586;12.066;2023-03-01T06:11:09;28.10;;;17.50;;
21820;SDS011;11073;48.586;12.066;2023-03-01T06:13:57;27.03;;;16.43;;
21820;SDS011;11073;48.586;12.066;2023-03-01T06:16:46;26.57;;;16.33;;
21820;SDS011;11073;48.586;12.066;2023-03-01T06:19:35;27.07;;;18.10;;
21820;SDS011;11073;48.586;12.066;2023-03-01T06:22:24;26.97;;;17.33;;
21820;SDS011;11073;48.586;12.066;2023-03-01T06:25:17;25.60;;;16.80;;
21820;SDS011;11073;48.586;12.066;2023-03-01T06:28:08;23.53;;;16.07;;
21820;SDS011;11073;48.586;12.066;2023-03-01T06:30:57;25.97;;;16.83;;
21820;SDS011;11073;48.586;12.066;2023-03-01T06:33:47;24.40;;;15.77;;
21820;SDS011;11073;48.586;12.066;2023-03-01T06:36:36;27.37;;;16.67;;
21820;SDS011;11073;48.586;12.066;2023-03-01T06:39:27;26.70;;;16.93;;
21820;SDS011;11073;48.586;12.066;2023-03-01T06:42:16;26.73;;;16.43;;
21820;SDS011;11073;48.586;12.066;2023-03-01T06:45:08;27.33;;;17.63;;
21820;SDS011;11073;48.586;12.066;2023-03-01T06:48:01;25.73;;;16.60;;
21820;SDS011;11073;48.586;12.066;2023-03-01T06:50:52;27.07;;;17.20;;
21820;SDS011;11073;48.586;12.066;2023-03-01T06:53:40;25.53;;;16.40;;
21820;SDS011;11073;48.586;12.066;2023-03-01T06:56:29;26.53;;;16.97;;
21820;SDS011;11073;48.586;12.066;2023-03-01T06:59:19;24.90;;;15.87;;
21820;SDS011;11073;48.586;12.066;2023-03-01T07:02:10;27.17;;;17.40;;
21820;SDS011;11073;48.586;12.066;2023-03-01T07:05:00;25.03;;;15.93;;
21820;SDS011;11073;48.586;12.066;2023-03-01T07:07:49;26.70;;;16.77;;
21820;SDS011;11073;48.586;12.066;2023-03-01T07:10:37;26.90;;;16.33;;
21820;SDS011;11073;48.586;12.066;2023-03-01T07:13:27;25.60;;;15.90;;
21820;SDS011;11073;48.586;12.066;2023-03-01T07:16:16;26.30;;;15.73;;
21820;SDS011;11073;48.586;12.066;2023-03-01T07:19:09;26.50;;;16.37;;
21820;SDS011;11073;48.586;12.066;2023-03-01T07:21:58;26.13;;;16.23;;
21820;SDS011;11073;48.586;12.066;2023-03-01T07:24:46;26.07;;;16.20;;
21820;SDS011;11073;48.586;12.066;2023-03-01T07:27:35;27.13;;;16.33;;
21820;SDS011;11073;48.586;12.066;2023-03-01T07:30:24;23.50;;;16.13;;
21820;SDS011;11073;48.586;12.066;2023-03-01T07:33:16;25.67;;;17.00;;
21820;SDS011;11073;48.586;12.066;2023-03-01T07:36:07;25.33;;;16.47;;
21820;SDS011;11073;48.586;12.066;2023-03-01T07:38:57;25.70;;;16.00;;
21820;SDS011;11073;48.586;12.066;2023-03-01T07:41:49;27.70;;;16.80;;
21820;SDS011;11073;48.586;12.066;2023-03-01T07:44:41;25.57;;;15.87;;
21820;SDS011;11073;48.586;12.066;2023-03-01T07:47:30;26.90;;;15.83;;
21820;SDS011;11073;48.586;12.066;2023-03-01T07:50:19;23.50;;;15.10;;
21820;SDS011;11073;48.586;12.066;2023-03-01T07:53:09;22.73;;;14.80;;
21820;SDS011;11073;48.586;12.066;2023-03-01T07:56:02;23.90;;;14.97;;
21820;SDS011;11073;48.586;12.066;2023-03-01T07:58:53;21.87;;;14.77;;
21820;SDS011;11073;48.586;12.066;2023-03-01T08:01:41;25.07;;;17.17;;
21820;SDS011;11073;48.586;12.066;2023-03-01T08:04:31;21.83;;;14.80;;
21820;SDS011;11073;48.586;12.066;2023-03-01T08:07:20;26.33;;;15.13;;
21820;SDS011;11073;48.586;12.066;2023-03-01T08:10:11;25.73;;;15.50;;
21820;SDS011;11073;48.586;12.066;2023-03-01T08:13:00;23.67;;;14.63;;
21820;SDS011;11073;48.586;12.066;2023-03-01T08:15:49;24.37;;;15.53;;
21820;SDS011;11073;48.586;12.066;2023-03-01T08:18:38;21.77;;;15.03;;
21820;SDS011;11073;48.586;12.066;2023-03-01T08:21:27;23.23;;;14.73;;
21820;SDS011;11073;48.586;12.066;2023-03-01T08:24:15;21.10;;;15.17;;
21820;SDS011;11073;48.586;12.066;2023-03-01T08:27:06;23.43;;;15.90;;
21820;SDS011;11073;48.586;12.066;2023-03-01T08:29:55;23.83;;;15.07;;
21820;SDS011;11073;48.586;12.066;2023-03-01T08:32:44;22.03;;;15.73;;
21820;SDS011;11073;48.586;12.066;2023-03-01T08:35:33;21.47;;;15.13;;
21820;SDS011;11073;48.586;12.066;2023-03-01T08:38:22;22.97;;;15.30;;
21820;SDS011;11073;48.586;12.066;2023-03-01T08:41:11;21.83;;;14.50;;
21820;SDS011;11073;48.586;12.066;2023-03-01T08:44:02;21.80;;;14.53;;
21820;SDS011;11073;48.586;12.066;2023-03-01T08:46:51;23.50;;;15.77;;
21820;SDS011;11073;48.586;12.066;2023-03-01T08:49:41;22.30;;;15.77;;
21820;SDS011;11073;48.586;12.066;2023-03-01T08:52:31;21.20;;;14.37;;
21820;SDS011;11073;48.586;12.066;2023-03-01T08:55:21;23.93;;;15.20;;
21820;SDS011;11073;48.586;12.066;2023-03-01T08:58:09;22.47;;;15.37;;
21820;SDS011;11073;48.586;12.066;2023-03-01T09:01:00;21.07;;;15.10;;
21820;SDS011;11073;48.586;12.066;2023-03-01T09:03:50;21.07;;;15.33;;
21820;SDS011;11073;48.586;12.066;2023-03-01T09:06:39;22.77;;;15.43;;
21820;SDS011;11073;48.586;12.066;2023-03-01T09:09:28;21.07;;;14.80;;
21820;SDS011;11073;48.586;12.066;2023-03-01T09:12:17;24.87;;;15.77;;
21820;SDS011;11073;48.586;12.066;2023-03-01T09:15:06;21.00;;;15.10;;
21820;SDS011;11073;48.586;12.066;2023-03-01T09:17:58;24.80;;;15.73;;
21820;SDS011;11073;48.586;12.066;2023-03-01T09:20:47;23.57;;;16.20;;
21820;SDS011;11073;48.586;12.066;2023-03-01T09:23:36;23.83;;;16.80;;
21820;SDS011;11073;48.586;12.066;2023-03-01T09:26:27;23.23;;;16.63;;
21820;SDS011;11073;48.586;12.066;2023-03-01T09:29:16;23.77;;;16.00;;
21820;SDS011;11073;48.586;12.066;2023-03-01T09:32:05;23.87;;;16.07;;
21820;SDS011;11073;48.586;12.066;2023-03-01T09:34:56;21.10;;;15.20;;
21820;SDS011;11073;48.586;12.066;2023-03-01T09:37:54;25.20;;;16.17;;
21820;SDS011;11073;48.586;12.066;2023-03-01T09:40:43;22.57;;;15.80;;
21820;SDS011;11073;48.586;12.066;2023-03-01T09:43:44;29.07;;;16.27;;
21820;SDS011;11073;48.586;12.066;2023-03-01T09:46:43;20.97;;;15.47;;
21820;SDS011;11073;48.586;12.066;2023-03-01T09:49:34;23.23;;;15.57;;
21820;SDS011;11073;48.586;12.066;2023-03-01T09:52:28;24.10;;;16.97;;
21820;SDS011;11073;48.586;12.066;2023-03-01T09:55:23;21.13;;;15.40;;
21820;SDS011;11073;48.586;12.066;2023-03-01T09:58:29;23.43;;;15.50;;
21820;SDS011;11073;48.586;12.066;2023-03-01T10:01:27;22.70;;;15.47;;
21820;SDS011;11073;48.586;12.066;2023-03-01T10:04:27;21.73;;;15.63;;
21820;SDS011;11073;48.586;12.066;2023-03-01T10:07:29;20.43;;;15.37;;
21820;SDS011;11073;48.586;12.066;2023-03-01T10:10:26;20.27;;;15.40;;
21820;SDS011;11073;48.586;12.066;2023-03-01T10:13:21;20.77;;;14.87;;
21820;SDS011;11073;48.586;12.066;2023-03-01T10:16:16;23.13;;;15.50;;
21820;SDS011;11073;48.586;12.066;2023-03-01T10:19:11;20.77;;;15.17;;
21820;SDS011;11073;48.586;12.066;2023-03-01T10:22:03;19.93;;;14.53;;
21820;SDS011;11073;48.586;12.066;2023-03-01T10:25:02;23.70;;;16.30;;
21820;SDS011;11073;48.586;12.066;2023-03-01T10:27:53;21.47;;;14.80;;
21820;SDS011;11073;48.586;12.066;2023-03-01T10:30:45;24.63;;;15.87;;
21820;SDS011;11073;48.586;12.066;2023-03-01T10:33:35;21.43;;;15.50;;
21820;SDS011;11073;48.586;12.066;2023-03-01T10:36:27;22.60;;;16.03;;
21820;SDS011;11073;48.586;12.066;2023-03-01T10:39:21;21.53;;;15.27;;
21820;SDS011;11073;48.586;12.066;2023-03-01T10:42:22;25.63;;;15.33;;
21820;SDS011;11073;48.586;12.066;2023-03-01T10:45:16;20.73;;;15.53;;
21820;SDS011;11073;48.586;12.066;2023-03-01T10:48:15;21.30;;;14.83;;
21820;SDS011;11073;48.586;12.066;2023-03-01T10:51:07;20.47;;;15.53;;
21820;SDS011;11073;48.586;12.066;2023-03-01T10:53:56;19.63;;;14.73;;
21820;SDS011;11073;48.586;12.066;2023-03-01T10:56:46;19.57;;;15.57;;
21820;SDS011;11073;48.586;12.066;2023-03-01T10:59:38;21.13;;;16.10;;
21820;SDS011;11073;48.586;12.066;2023-03-01T11:02:28;20.88;;;15.55;;
21820;SDS011;11073;48.586;12.066;2023-03-01T11:05:22;20.07;;;15.17;;
21820;SDS011;11073;48.586;12.066;2023-03-01T11:08:12;20.80;;;14.43;;
21820;SDS011;11073;48.586;12.066;2023-03-01T11:11:06;17.67;;;13.95;;
21820;SDS011;11073;48.586;12.066;2023-03-01T11:14:03;19.60;;;14.77;;
21820;SDS011;11073;48.586;12.066;2023-03-01T11:17:15;22.52;;;15.00;;
21820;SDS011;11073;48.586;12.066;2023-03-01T11:20:13;20.40;;;14.90;;
21820;SDS011;11073;48.586;12.066;2023-03-01T11:23:15;20.42;;;14.52;;
21820;SDS011;11073;48.586;12.066;2023-03-01T11:26:05;20.45;;;15.10;;
21820;SDS011;11073;48.586;12.066;2023-03-01T11:29:00;20.02;;;14.65;;
21820;SDS011;11073;48.586;12.066;2023-03-01T11:31:54;20.13;;;15.20;;
21820;SDS011;11073;48.586;12.066;2023-03-01T11:34:50;21.42;;;15.00;;
21820;SDS011;11073;48.586;12.066;2023-03-01T11:37:48;22.63;;;15.65;;
21820;SDS011;11073;48.586;12.066;2023-03-01T11:40:49;20.77;;;15.82;;
21820;SDS011;11073;48.586;12.066;2023-03-01T11:43:45;20.05;;;15.63;;
21820;SDS011;11073;48.586;12.066;2023-03-01T11:47:03;21.25;;;15.25;;
21820;SDS011;11073;48.586;12.066;2023-03-01T11:50:08;18.67;;;14.98;;
21820;SDS011;11073;48.586;12.066;2023-03-01T11:53:09;20.75;;;14.75;;
21820;SDS011;11073;48.586;12.066;2023-03-01T11:56:20;19.17;;;14.73;;
21820;SDS011;11073;48.586;12.066;2023-03-01T12:06:21;17.92;;;14.73;;
21820;SDS011;11073;48.586;12.066;2023-03-01T12:09:21;20.05;;;15.15;;
21820;SDS011;11073;48.586;12.066;2023-03-01T12:12:30;19.33;;;13.98;;
21820;SDS011;11073;48.586;12.066;2023-03-01T12:15:30;18.73;;;15.05;;
21820;SDS011;11073;48.586;12.066;2023-03-01T12:18:32;17.77;;;14.65;;
21820;SDS011;11073;48.586;12.066;2023-03-01T12:21:44;18.33;;;14.82;;
21820;SDS011;11073;48.586;12.066;2023-03-01T12:25:25;18.85;;;14.63;;
21820;SDS011;11073;48.586;12.066;2023-03-01T12:31:44;18.63;;;13.88;;
21820;SDS011;11073;48.586;12.066;2023-03-01T12:38:18;17.30;;;13.57;;
21820;SDS011;11073;48.586;12.066;2023-03-01T12:41:26;17.83;;;13.25;;
21820;SDS011;11073;48.586;12.066;2023-03-01T12:44:31;17.98;;;13.73;;
21820;SDS011;11073;48.586;12.066;2023-03-01T12:47:40;17.13;;;13.65;;
21820;SDS011;11073;48.586;12.066;2023-03-01T12:50:41;16.88;;;13.63;;
21820;SDS011;11073;48.586;12.066;2023-03-01T12:53:34;17.13;;;13.98;;
21820;SDS011;11073;48.586;12.066;2023-03-01T12:56:28;17.17;;;14.18;;
21820;SDS011;11073;48.586;12.066;2023-03-01T12:59:21;18.50;;;14.05;;
21820;SDS011;11073;48.586;12.066;2023-03-01T13:02:19;15.02;;;12.20;;
21820;SDS011;11073;48.586;12.066;2023-03-01T13:05:29;18.25;;;14.07;;
21820;SDS011;11073;48.586;12.066;2023-03-01T13:08:29;14.32;;;12.50;;
21820;SDS011;11073;48.586;12.066;2023-03-01T13:11:25;15.93;;;13.05;;
21820;SDS011;11073;48.586;12.066;2023-03-01T13:17:39;17.58;;;13.57;;
21820;SDS011;11073;48.586;12.066;2023-03-01T13:20:34;16.40;;;14.00;;
21820;SDS011;11073;48.586;12.066;2023-03-01T13:23:35;16.35;;;13.65;;
21820;SDS011;11073;48.586;12.066;2023-03-01T13:26:26;16.60;;;13.25;;
21820;SDS011;11073;48.586;12.066;2023-03-01T13:29:25;15.35;;;13.65;;
21820;SDS011;11073;48.586;12.066;2023-03-01T13:32:22;15.63;;;13.40;;
21820;SDS011;11073;48.586;12.066;2023-03-01T13:35:42;17.42;;;14.40;;
21820;SDS011;11073;48.586;12.066;2023-03-01T13:38:37;15.88;;;13.38;;
21820;SDS011;11073;48.586;12.066;2023-03-01T13:41:50;15.90;;;13.20;;
21820;SDS011;11073;48.586;12.066;2023-03-01T13:44:41;18.45;;;13.90;;
21820;SDS011;11073;48.586;12.066;2023-03-01T13:47:31;13.88;;;12.32;;
21820;SDS011;11073;48.586;12.066;2023-03-01T13:50:24;15.52;;;12.63;;
21820;SDS011;11073;48.586;12.066;2023-03-01T13:53:17;14.48;;;12.50;;
21820;SDS011;11073;48.586;12.066;2023-03-01T13:56:09;15.00;;;12.45;;
21820;SDS011;11073;48.586;12.066;2023-03-01T13:59:02;14.18;;;11.70;;
21820;SDS011;11073;48.586;12.066;2023-03-01T14:01:55;14.50;;;11.32;;
21820;SDS011;11073;48.586;12.066;2023-03-01T14:04:55;13.60;;;11.48;;
21820;SDS011;11073;48.586;12.066;2023-03-01T14:07:50;13.88;;;11.40;;
21820;SDS011;11073;48.586;12.066;2023-03-01T14:10:42;13.32;;;11.52;;
21820;SDS011;11073;48.586;12.066;2023-03-01T14:13:42;13.63;;;11.90;;
21820;SDS011;11073;48.586;12.066;2023-03-01T14:16:44;13.75;;;12.20;;
21820;SDS011;11073;48.586;12.066;2023-03-01T14:19:43;14.23;;;12.05;;
21820;SDS011;11073;48.586;12.066;2023-03-01T14:22:35;14.10;;;12.27;;
21820;SDS011;11073;48.586;12.066;2023-03-01T14:25:26;12.98;;;10.90;;
21820;SDS011;11073;48.586;12.066;2023-03-01T14:28:19;14.20;;;11.90;;
21820;SDS011;11073;48.586;12.066;2023-03-01T14:34:33;16.90;;;11.82;;
21820;SDS011;11073;48.586;12.066;2023-03-01T14:37:24;15.75;;;12.07;;
21820;SDS011;11073;48.586;12.066;2023-03-01T14:40:20;12.00;;;10.48;;
21820;SDS011;11073;48.586;12.066;2023-03-01T14:43:12;12.95;;;10.80;;
21820;SDS011;11073;48.586;12.066;2023-03-01T14:46:16;12.15;;;10.50;;
21820;SDS011;11073;48.586;12.066;2023-03-01T14:49:09;13.35;;;10.65;;
21820;SDS011;11073;48.586;12.066;2023-03-01T14:52:01;13.75;;;10.50;;
21820;SDS011;11073;48.586;12.066;2023-03-01T14:54:53;13.73;;;11.48;;
21820;SDS011;11073;48.586;12.066;2023-03-01T14:57:44;13.25;;;11.05;;
21820;SDS011;11073;48.586;12.066;2023-03-01T15:00:36;13.95;;;11.00;;
21820;SDS011;11073;48.586;12.066;2023-03-01T15:03:26;18.05;;;13.38;;
21820;SDS011;11073;48.586;12.066;2023-03-01T15:06:21;14.50;;;12.05;;
21820;SDS011;11073;48.586;12.066;2023-03-01T15:09:12;13.90;;;11.93;;
21820;SDS011;11073;48.586;12.066;2023-03-01T15:15:33;15.27;;;12.43;;
21820;SDS011;11073;48.586;12.066;2023-03-01T15:18:26;16.13;;;13.25;;
21820;SDS011;11073;48.586;12.066;2023-03-01T15:21:18;15.85;;;12.05;;
21820;SDS011;11073;48.586;12.066;2023-03-01T15:24:16;15.13;;;12.70;;
21820;SDS011;11073;48.586;12.066;2023-03-01T15:27:13;14.68;;;12.52;;
21820;SDS011;11073;48.586;12.066;2023-03-01T15:30:06;17.80;;;12.73;;
21820;SDS011;11073;48.586;12.066;2023-03-01T15:33:19;17.10;;;13.07;;
21820;SDS011;11073;48.586;12.066;2023-03-01T15:36:36;16.95;;;12.20;;
21820;SDS011;11073;48.586;12.066;2023-03-01T15:39:38;18.08;;;12.40;;
21820;SDS011;11073;48.586;12.066;2023-03-01T15:42:36;14.65;;;12.63;;
21820;SDS011;11073;48.586;12.066;2023-03-01T15:45:26;16.15;;;13.00;;
21820;SDS011;11073;48.586;12.066;2023-03-01T15:48:17;18.50;;;13.23;;
21820;SDS011;11073;48.586;12.066;2023-03-01T15:51:09;17.13;;;13.77;;
21820;SDS011;11073;48.586;12.066;2023-03-01T15:54:03;18.13;;;14.02;;
21820;SDS011;11073;48.586;12.066;2023-03-01T15:56:55;17.38;;;14.38;;
21820;SDS011;11073;48.586;12.066;2023-03-01T15:59:44;22.75;;;16.83;;
21820;SDS011;11073;48.586;12.066;2023-03-01T16:02:33;23.63;;;17.80;;
21820;SDS011;11073;48.586;12.066;2023-03-01T16:05:22;23.92;;;15.98;;
21820;SDS011;11073;48.586;12.066;2023-03-01T16:08:13;26.17;;;16.42;;
21820;SDS011;11073;48.586;12.066;2023-03-01T16:11:05;19.70;;;16.25;;
21820;SDS011;11073;48.586;12.066;2023-03-01T16:14:02;23.13;;;17.00;;
21820;SDS011;11073;48.586;12.066;2023-03-01T16:16:52;20.05;;;16.17;;
21820;SDS011;11073;48.586;12.066;2023-03-01T16:19:41;20.83;;;17.08;;
21820;SDS011;11073;48.586;12.066;2023-03-01T16:22:29;20.85;;;16.58;;
21820;SDS011;11073;48.586;12.066;2023-03-01T16:25:18;21.58;;;16.65;;
21820;SDS011;11073;48.586;12.066;2023-03-01T16:28:10;24.83;;;17.77;;
21820;SDS011;11073;48.586;12.066;2023-03-01T16:30:59;22.90;;;17.17;;
21820;SDS011;11073;48.586;12.066;2023-03-01T16:33:49;22.63;;;17.52;;
21820;SDS011;11073;48.586;12.066;2023-03-01T16:36:41;24.73;;;18.15;;
21820;SDS011;11073;48.586;12.066;2023-03-01T16:39:31;24.02;;;18.23;;
21820;SDS011;11073;48.586;12.066;2023-03-01T16:42:20;23.42;;;18.25;;
21820;SDS011;11073;48.586;12.066;2023-03-01T16:45:11;25.95;;;20.77;;
21820;SDS011;11073;48.586;12.066;2023-03-01T16:48:11;49.50;;;42.42;;
21820;SDS011;11073;48.586;12.066;2023-03-01T16:51:00;53.22;;;47.42;;
21820;SDS011;11073;48.586;12.066;2023-03-01T16:53:50;27.88;;;18.90;;
21820;SDS011;11073;48.586;12.066;2023-03-01T16:56:39;26.27;;;18.63;;
21820;SDS011;11073;48.586;12.066;2023-03-01T16:59:28;25.70;;;18.63;;
21820;SDS011;11073;48.586;12.066;2023-03-01T17:02:18;25.83;;;18.73;;